Time;durP1;ratioP1;P1;durP2;ratioP2;P2;SDS_P1;SDS_P2;PMS_P1;PMS_P2;Temp;Humidity;BMP_temperature;BMP_pressure;BME280_temperature;BME280_humidity;BME280_pressure;Samples;Min_cycle;Max_cycle;Signal;HPM_P1;HPM_P2
2024/04/06 00:01:51;;;;;;;2.00;1.55;;;;;;;;;;5096460;28;20439;-79
2024/04/06 00:04:17;;;;;;;1.77;1.60;;;;;;;;;;5096299;28;20386;-79
2024/04/06 00:06:43;;;;;;;2.13;1.67;;;;;;;;;;5096489;28;20377;-79
2024/04/06 00:09:11;;;;;;;1.60;1.50;;;;;;;;;;5097005;28;20405;-79
2024/04/06 00:11:37;;;;;;;2.00;1.50;;;;;;;;;;5096603;28;20416;-79
2024/04/06 00:14:03;;;;;;;2.75;1.40;;;;;;;;;;5096543;28;20375;-79
2024/04/06 00:16:29;;;;;;;1.70;1.40;;;;;;;;;;5096927;28;20417;-79
2024/04/06 00:18:55;;;;;;;1.90;1.40;;;;;;;;;;5095932;28;20378;-79
2024/04/06 00:21:21;;;;;;;2.53;1.65;;;;;;;;;;5095701;28;20716;-79
2024/04/06 00:23:47;;;;;;;2.20;1.67;;;;;;;;;;5097127;28;20392;-79
2024/04/06 00:26:13;;;;;;;4.20;1.52;;;;;;;;;;5100503;28;20406;-79
2024/04/06 00:28:39;;;;;;;2.45;1.80;;;;;;;;;;5100155;28;20752;-79
2024/04/06 00:31:05;;;;;;;1.75;1.48;;;;;;;;;;5100840;28;20388;-79
2024/04/06 00:33:31;;;;;;;1.73;1.40;;;;;;;;;;5099752;28;20413;-79
2024/04/06 00:35:57;;;;;;;2.33;1.60;;;;;;;;;;5099717;28;20378;-80
2024/04/06 00:38:23;;;;;;;2.72;1.50;;;;;;;;;;5099630;28;20464;-79
2024/04/06 00:40:49;;;;;;;1.90;1.20;;;;;;;;;;5100461;28;20393;-79
2024/04/06 00:43:15;;;;;;;2.50;1.52;;;;;;;;;;5099990;28;20463;-79
2024/04/06 00:45:41;;;;;;;3.15;1.55;;;;;;;;;;5098912;28;20396;-79
2024/04/06 00:48:09;;;;;;;3.00;1.60;;;;;;;;;;5100089;28;20481;-79
2024/04/06 00:50:35;;;;;;;1.83;1.50;;;;;;;;;;5099752;28;20917;-79
2024/04/06 00:53:01;;;;;;;3.13;1.50;;;;;;;;;;5100040;28;20385;-79
2024/04/06 00:55:27;;;;;;;2.83;1.40;;;;;;;;;;5100294;28;20370;-79
2024/04/06 00:57:53;;;;;;;1.70;1.38;;;;;;;;;;5099544;28;20418;-79
2024/04/06 01:00:19;;;;;;;2.10;1.50;;;;;;;;;;5099555;28;20370;-79
2024/04/06 01:02:45;;;;;;;3.22;1.67;;;;;;;;;;5099302;28;20401;-79
2024/04/06 01:05:11;;;;;;;1.90;1.48;;;;;;;;;;5100064;28;20370;-79
2024/04/06 01:07:42;;;;;;;2.55;1.55;;;;;;;;;;5099469;28;20441;-79
2024/04/06 01:10:09;;;;;;;2.17;1.40;;;;;;;;;;5099644;28;20441;-79
2024/04/06 01:12:35;;;;;;;2.70;1.70;;;;;;;;;;5099668;28;20381;-80
2024/04/06 01:15:01;;;;;;;1.53;1.43;;;;;;;;;;5099017;28;20399;-79
2024/04/06 01:17:27;;;;;;;2.27;1.60;;;;;;;;;;5099505;28;20405;-79
2024/04/06 01:19:53;;;;;;;2.78;1.70;;;;;;;;;;5099181;28;20378;-79
2024/04/06 01:22:19;;;;;;;1.98;1.77;;;;;;;;;;5099097;28;20393;-79
2024/04/06 01:24:45;;;;;;;2.13;1.90;;;;;;;;;;5098878;28;20370;-79
2024/04/06 01:27:11;;;;;;;2.40;1.77;;;;;;;;;;5099590;28;20431;-80
2024/04/06 01:29:38;;;;;;;1.85;1.30;;;;;;;;;;5098816;28;20421;-80
2024/04/06 01:32:04;;;;;;;1.90;1.65;;;;;;;;;;5098653;28;20406;-79
2024/04/06 01:34:30;;;;;;;2.35;1.45;;;;;;;;;;5099225;28;20390;-79
2024/04/06 01:36:56;;;;;;;2.40;1.40;;;;;;;;;;5098502;28;20386;-79
2024/04/06 01:39:22;;;;;;;2.97;1.30;;;;;;;;;;5098522;28;20725;-79
2024/04/06 01:41:48;;;;;;;1.38;1.27;;;;;;;;;;5098239;28;20382;-79
2024/04/06 01:44:15;;;;;;;2.25;1.20;;;;;;;;;;5098755;28;20374;-79
2024/04/06 01:46:41;;;;;;;2.40;1.42;;;;;;;;;;5097548;28;20435;-79
2024/04/06 01:49:07;;;;;;;1.92;1.33;;;;;;;;;;5098535;28;20459;-79
2024/04/06 01:51:33;;;;;;;1.70;1.20;;;;;;;;;;5098159;28;20736;-79
2024/04/06 01:53:59;;;;;;;1.60;1.13;;;;;;;;;;5098652;28;20374;-79
2024/04/06 01:56:29;;;;;;;2.28;1.25;;;;;;;;;;5098290;28;20860;-79
2024/04/06 01:58:55;;;;;;;3.13;1.35;;;;;;;;;;5098317;28;20377;-79
2024/04/06 02:01:21;;;;;;;3.53;1.10;;;;;;;;;;5098446;28;20392;-79
2024/04/06 02:03:47;;;;;;;1.97;1.17;;;;;;;;;;5098456;28;20472;-79
2024/04/06 02:06:13;;;;;;;2.22;1.40;;;;;;;;;;5098471;28;20378;-79
2024/04/06 02:08:39;;;;;;;2.30;1.40;;;;;;;;;;5098577;28;20398;-79
2024/04/06 02:11:05;;;;;;;1.70;1.40;;;;;;;;;;5098552;28;20366;-79
2024/04/06 02:13:32;;;;;;;1.47;1.30;;;;;;;;;;5098642;28;20382;-79
2024/04/06 02:15:58;;;;;;;2.80;1.53;;;;;;;;;;5098344;28;20374;-80
2024/04/06 02:18:24;;;;;;;2.30;1.33;;;;;;;;;;5097944;28;20445;-79
2024/04/06 02:20:50;;;;;;;1.50;1.05;;;;;;;;;;5097991;28;20386;-79
2024/04/06 02:23:16;;;;;;;1.50;1.15;;;;;;;;;;5098039;28;21254;-79
2024/04/06 02:25:42;;;;;;;2.13;1.30;;;;;;;;;;5097900;28;20431;-79
2024/04/06 02:28:08;;;;;;;1.63;1.40;;;;;;;;;;5097801;28;20406;-79
2024/04/06 02:30:34;;;;;;;2.17;1.30;;;;;;;;;;5097881;28;20485;-79
2024/04/06 02:33:00;;;;;;;2.50;1.08;;;;;;;;;;5097526;28;20455;-79
2024/04/06 02:35:26;;;;;;;1.97;1.10;;;;;;;;;;5097497;28;20511;-79
2024/04/06 02:37:52;;;;;;;2.55;1.13;;;;;;;;;;5097477;28;20394;-79
2024/04/06 02:40:18;;;;;;;1.90;1.23;;;;;;;;;;5098128;28;20394;-79
2024/04/06 02:42:45;;;;;;;1.48;1.38;;;;;;;;;;5096961;28;20425;-79
2024/04/06 02:45:11;;;;;;;1.90;1.13;;;;;;;;;;5097721;28;20406;-79
2024/04/06 02:47:37;;;;;;;1.40;1.30;;;;;;;;;;5095669;28;20420;-79
2024/04/06 02:50:03;;;;;;;2.15;1.35;;;;;;;;;;5097251;28;20370;-79
2024/04/06 02:52:29;;;;;;;1.70;1.38;;;;;;;;;;5097421;28;20371;-79
2024/04/06 02:54:56;;;;;;;2.03;1.50;;;;;;;;;;5097460;28;20391;-79
2024/04/06 02:57:22;;;;;;;1.33;1.20;;;;;;;;;;5097041;28;20385;-79
2024/04/06 02:59:49;;;;;;;1.80;1.38;;;;;;;;;;5096804;28;20846;-79
2024/04/06 03:02:15;;;;;;;2.90;2.53;;;;;;;;;;5097531;28;20365;-79
2024/04/06 03:04:42;;;;;;;1.90;1.48;;;;;;;;;;5096622;28;20409;-79
2024/04/06 03:07:09;;;;;;;2.08;1.30;;;;;;;;;;5097362;28;20744;-79
2024/04/06 03:09:36;;;;;;;1.33;1.13;;;;;;;;;;5097415;28;20457;-79
2024/04/06 03:12:05;;;;;;;2.60;1.33;;;;;;;;;;5097837;28;20377;-79
2024/04/06 03:14:34;;;;;;;1.45;1.27;;;;;;;;;;5096922;28;20390;-79
2024/04/06 03:17:00;;;;;;;1.48;1.20;;;;;;;;;;5096635;28;20382;-79
2024/04/06 03:19:26;;;;;;;1.70;1.60;;;;;;;;;;5096945;28;20397;-79
2024/04/06 03:21:52;;;;;;;2.00;1.40;;;;;;;;;;5097050;28;20449;-79
2024/04/06 03:24:18;;;;;;;3.47;1.30;;;;;;;;;;5096957;28;20400;-79
2024/04/06 03:26:44;;;;;;;2.15;1.50;;;;;;;;;;5097188;28;20382;-79
2024/04/06 03:29:11;;;;;;;1.73;1.50;;;;;;;;;;5097533;28;20410;-79
2024/04/06 03:31:37;;;;;;;1.80;1.30;;;;;;;;;;5096342;28;21256;-79
2024/04/06 03:34:03;;;;;;;2.37;1.07;;;;;;;;;;5078686;28;20394;-79
2024/04/06 03:36:29;;;;;;;2.35;1.30;;;;;;;;;;5096521;28;20439;-79
2024/04/06 03:38:55;;;;;;;2.20;1.27;;;;;;;;;;5096797;28;20382;-80
2024/04/06 03:41:21;;;;;;;1.50;1.40;;;;;;;;;;5097155;28;20789;-79
2024/04/06 03:43:47;;;;;;;1.30;1.20;;;;;;;;;;5095940;28;20429;-79
2024/04/06 03:46:13;;;;;;;1.58;1.23;;;;;;;;;;5096903;28;20378;-79
2024/04/06 03:48:40;;;;;;;1.30;1.20;;;;;;;;;;5096240;28;20415;-79
2024/04/06 03:51:07;;;;;;;2.63;1.17;;;;;;;;;;5094632;28;20371;-79
2024/04/06 03:53:35;;;;;;;2.53;1.50;;;;;;;;;;5096055;28;20374;-80
2024/04/06 03:56:01;;;;;;;2.10;1.30;;;;;;;;;;5096193;28;20413;-79
2024/04/06 03:58:27;;;;;;;1.48;1.35;;;;;;;;;;5096341;28;20392;-79
2024/04/06 04:00:53;;;;;;;2.03;1.30;;;;;;;;;;5100560;28;20390;-79
2024/04/06 04:03:20;;;;;;;1.80;1.30;;;;;;;;;;5100424;28;20403;-79
2024/04/06 04:05:46;;;;;;;2.72;1.35;;;;;;;;;;5100759;28;20374;-79
2024/04/06 04:08:12;;;;;;;1.45;1.13;;;;;;;;;;5100369;28;20440;-79
2024/04/06 04:10:38;;;;;;;2.50;1.30;;;;;;;;;;5100287;28;20778;-79
2024/04/06 04:13:11;;;;;;;2.67;1.60;;;;;;;;;;5100292;28;20461;-79
2024/04/06 04:15:40;;;;;;;1.80;1.30;;;;;;;;;;5100526;28;20459;-79
2024/04/06 04:18:07;;;;;;;2.10;1.40;;;;;;;;;;5099839;28;20387;-78
2024/04/06 04:20:33;;;;;;;1.70;1.60;;;;;;;;;;5082054;28;20505;-80
2024/04/06 04:23:02;;;;;;;2.05;1.40;;;;;;;;;;5100069;28;20381;-79
2024/04/06 04:25:31;;;;;;;1.63;1.50;;;;;;;;;;5100289;28;20769;-80
2024/04/06 04:27:58;;;;;;;1.67;1.30;;;;;;;;;;5094124;28;20421;-79
2024/04/06 04:30:24;;;;;;;3.13;1.60;;;;;;;;;;5097842;28;20381;-79
2024/04/06 04:32:51;;;;;;;1.90;1.70;;;;;;;;;;5100643;28;20412;-79
2024/04/06 04:35:17;;;;;;;2.03;1.35;;;;;;;;;;5099755;28;20490;-79
2024/04/06 04:37:43;;;;;;;1.67;1.30;;;;;;;;;;5100493;28;20370;-79
2024/04/06 04:40:10;;;;;;;2.72;1.50;;;;;;;;;;5100413;28;20378;-78
2024/04/06 04:42:36;;;;;;;1.65;1.33;;;;;;;;;;5100009;28;20385;-79
2024/04/06 04:45:10;;;;;;;1.95;1.38;;;;;;;;;;5100573;28;20413;-79
2024/04/06 04:47:37;;;;;;;1.40;1.07;;;;;;;;;;5100051;28;20408;-79
2024/04/06 04:50:03;;;;;;;1.93;1.20;;;;;;;;;;5100040;28;20378;-79
2024/04/06 04:52:29;;;;;;;1.88;1.23;;;;;;;;;;5098586;28;20396;-78
2024/04/06 04:54:55;;;;;;;1.27;1.10;;;;;;;;;;5100245;28;20406;-79
2024/04/06 04:57:21;;;;;;;2.55;1.10;;;;;;;;;;5100155;28;21010;-79
2024/04/06 04:59:47;;;;;;;1.95;1.08;;;;;;;;;;5099261;28;20394;-79
2024/04/06 05:02:14;;;;;;;2.05;1.20;;;;;;;;;;5099544;28;20389;-79
2024/04/06 05:04:40;;;;;;;1.33;1.10;;;;;;;;;;5099123;28;20382;-78
2024/04/06 05:07:06;;;;;;;2.65;1.42;;;;;;;;;;5099161;28;20374;-79
2024/04/06 05:09:32;;;;;;;1.90;1.30;;;;;;;;;;5098738;28;20409;-79
2024/04/06 05:11:58;;;;;;;2.03;1.17;;;;;;;;;;5097644;28;20378;-78
2024/04/06 05:14:24;;;;;;;2.20;1.30;;;;;;;;;;5099153;28;20860;-78
2024/04/06 05:16:50;;;;;;;1.50;1.20;;;;;;;;;;5099190;28;20403;-79
2024/04/06 05:19:16;;;;;;;2.25;1.20;;;;;;;;;;5099089;28;20411;-79
2024/04/06 05:21:42;;;;;;;1.43;1.33;;;;;;;;;;5098900;28;20386;-79
2024/04/06 05:24:08;;;;;;;2.00;1.40;;;;;;;;;;5099218;28;20848;-79
2024/04/06 05:26:35;;;;;;;1.70;1.35;;;;;;;;;;5099521;28;20378;-79
2024/04/06 05:29:01;;;;;;;3.20;1.50;;;;;;;;;;5098888;28;20398;-79
2024/04/06 05:31:27;;;;;;;2.70;2.20;;;;;;;;;;5098850;28;20451;-79
2024/04/06 05:33:53;;;;;;;3.78;2.55;;;;;;;;;;5098545;28;20398;-79
2024/04/06 05:36:19;;;;;;;2.25;1.30;;;;;;;;;;5099170;28;20381;-79
2024/04/06 05:38:45;;;;;;;2.10;1.33;;;;;;;;;;5098014;28;20418;-79
2024/04/06 05:41:11;;;;;;;2.67;1.40;;;;;;;;;;5098541;28;20385;-78
2024/04/06 05:43:37;;;;;;;1.95;1.48;;;;;;;;;;5098166;28;20381;-78
2024/04/06 05:46:04;;;;;;;2.05;1.30;;;;;;;;;;5097125;28;20378;-78
2024/04/06 05:48:31;;;;;;;3.60;1.40;;;;;;;;;;5097783;28;20490;-79
2024/04/06 05:51:00;;;;;;;1.23;1.13;;;;;;;;;;5097100;28;20370;-78
2024/04/06 05:53:26;;;;;;;2.53;1.30;;;;;;;;;;5077494;28;20871;-78
2024/04/06 05:55:52;;;;;;;1.60;1.20;;;;;;;;;;5096808;28;20474;-78
2024/04/06 05:58:19;;;;;;;1.75;1.25;;;;;;;;;;5098274;28;20444;-79
2024/04/06 06:00:45;;;;;;;2.15;1.38;;;;;;;;;;5098072;28;20488;-79
2024/04/06 06:03:12;;;;;;;3.50;1.58;;;;;;;;;;5098295;28;20904;-79
2024/04/06 06:05:38;;;;;;;1.65;1.40;;;;;;;;;;5098160;28;20386;-79
2024/04/06 06:08:04;;;;;;;2.28;1.33;;;;;;;;;;5097405;28;20414;-79
2024/04/06 06:10:30;;;;;;;2.30;1.90;;;;;;;;;;5098114;28;20366;-79
2024/04/06 06:12:57;;;;;;;1.75;1.55;;;;;;;;;;5097383;28;20883;-81
2024/04/06 06:15:23;;;;;;;3.13;1.77;;;;;;;;;;5097971;28;20977;-79
2024/04/06 06:17:49;;;;;;;2.53;1.88;;;;;;;;;;5096928;28;20841;-80
2024/04/06 06:20:15;;;;;;;5.50;3.43;;;;;;;;;;5097535;28;20547;-80
2024/04/06 06:22:41;;;;;;;2.58;2.38;;;;;;;;;;5097781;28;20410;-80
2024/04/06 06:25:08;;;;;;;3.25;2.80;;;;;;;;;;5096723;28;20424;-80
2024/04/06 06:27:34;;;;;;;2.85;2.60;;;;;;;;;;5078978;28;20441;-79
2024/04/06 06:30:00;;;;;;;2.53;2.22;;;;;;;;;;5097220;28;20382;-79
2024/04/06 06:32:27;;;;;;;3.78;1.90;;;;;;;;;;5097600;28;20433;-80
2024/04/06 06:34:53;;;;;;;3.03;2.45;;;;;;;;;;5096378;28;20483;-79
2024/04/06 06:37:19;;;;;;;2.05;1.80;;;;;;;;;;5097553;28;20774;-79
2024/04/06 06:39:45;;;;;;;1.88;1.70;;;;;;;;;;5097386;28;20374;-79
2024/04/06 06:42:12;;;;;;;2.25;1.80;;;;;;;;;;5097643;28;20381;-79
2024/04/06 06:44:38;;;;;;;1.92;1.70;;;;;;;;;;5080044;28;20386;-79
2024/04/06 06:47:05;;;;;;;2.75;1.85;;;;;;;;;;5097708;28;20739;-79
2024/04/06 06:49:31;;;;;;;4.82;2.30;;;;;;;;;;5097430;28;20412;-79
2024/04/06 06:51:57;;;;;;;3.40;2.20;;;;;;;;;;5097488;28;20386;-79
2024/04/06 06:54:23;;;;;;;2.13;1.75;;;;;;;;;;5096566;28;20423;-79
2024/04/06 06:56:49;;;;;;;1.85;1.75;;;;;;;;;;5097634;28;20408;-79
2024/04/06 06:59:15;;;;;;;3.53;1.90;;;;;;;;;;5096766;28;20374;-79
2024/04/06 07:01:41;;;;;;;2.88;1.80;;;;;;;;;;5097172;28;20446;-79
2024/04/06 07:04:07;;;;;;;1.70;1.60;;;;;;;;;;5097315;28;20378;-79
2024/04/06 07:06:33;;;;;;;3.25;1.65;;;;;;;;;;5095848;28;20856;-79
2024/04/06 07:08:59;;;;;;;3.20;1.60;;;;;;;;;;5095753;28;20504;-79
2024/04/06 07:11:25;;;;;;;2.35;1.63;;;;;;;;;;5095819;28;20442;-79
2024/04/06 07:13:51;;;;;;;2.03;1.50;;;;;;;;;;5096590;28;20755;-79
2024/04/06 07:16:17;;;;;;;2.25;1.83;;;;;;;;;;5096449;28;20378;-79
2024/04/06 07:18:44;;;;;;;3.15;2.17;;;;;;;;;;5096160;28;20377;-79
2024/04/06 07:21:16;;;;;;;3.08;2.38;;;;;;;;;;5095835;28;20405;-79
2024/04/06 07:23:42;;;;;;;2.75;2.20;;;;;;;;;;5096018;28;20388;-79
2024/04/06 07:26:08;;;;;;;3.10;2.10;;;;;;;;;;5094922;28;20425;-79
2024/04/06 07:28:37;;;;;;;4.23;2.20;;;;;;;;;;5096378;28;20465;-79
2024/04/06 07:31:07;;;;;;;3.42;2.00;;;;;;;;;;5095655;28;20785;-79
2024/04/06 07:33:33;;;;;;;3.03;1.80;;;;;;;;;;5095336;28;20398;-79
2024/04/06 07:35:59;;;;;;;2.28;1.85;;;;;;;;;;5096935;28;20381;-79
2024/04/06 07:38:25;;;;;;;3.38;2.05;;;;;;;;;;5096149;28;20421;-79
2024/04/06 07:41:02;;;;;;;3.80;2.58;;;;;;;;;;5096757;28;20432;-79
2024/04/06 07:43:28;;;;;;;2.97;2.30;;;;;;;;;;5096388;28;20391;-79
2024/04/06 07:45:55;;;;;;;5.63;2.80;;;;;;;;;;5096442;28;20412;-79
2024/04/06 07:48:21;;;;;;;3.55;2.55;;;;;;;;;;5095444;28;20401;-79
2024/04/06 07:50:47;;;;;;;3.45;2.72;;;;;;;;;;5095879;28;20883;-80
2024/04/06 07:53:13;;;;;;;5.53;2.88;;;;;;;;;;5096075;28;20399;-79
2024/04/06 07:55:39;;;;;;;5.10;2.80;;;;;;;;;;5094919;28;20401;-79
2024/04/06 07:58:06;;;;;;;4.90;2.50;;;;;;;;;;5095800;28;20797;-79
2024/04/06 08:00:35;;;;;;;4.05;2.40;;;;;;;;;;5096057;28;20965;-79
2024/04/06 08:03:01;;;;;;;4.43;2.50;;;;;;;;;;5096590;28;20459;-79
2024/04/06 08:05:27;;;;;;;2.92;2.22;;;;;;;;;;5096353;28;20862;-79
2024/04/06 08:07:53;;;;;;;3.47;2.17;;;;;;;;;;5096348;28;20398;-79
2024/04/06 08:10:26;;;;;;;4.35;2.58;;;;;;;;;;5095950;28;20376;-80
2024/04/06 08:12:55;;;;;;;4.88;2.42;;;;;;;;;;5096383;28;20407;-79
2024/04/06 08:15:21;;;;;;;6.78;2.17;;;;;;;;;;5096236;28;20401;-79
2024/04/06 08:17:52;;;;;;;3.13;2.25;;;;;;;;;;5095709;28;20375;-79
2024/04/06 08:20:19;;;;;;;3.40;2.05;;;;;;;;;;5096099;28;20423;-81
2024/04/06 08:22:45;;;;;;;2.50;1.90;;;;;;;;;;5096484;28;20736;-79
2024/04/06 08:25:11;;;;;;;5.50;2.60;;;;;;;;;;5095704;28;20410;-79
2024/04/06 08:27:37;;;;;;;3.97;2.17;;;;;;;;;;5096262;28;20544;-79
2024/04/06 08:30:07;;;;;;;3.65;2.17;;;;;;;;;;5095783;28;20432;-79
2024/04/06 08:32:35;;;;;;;3.00;1.80;;;;;;;;;;5096491;28;20393;-79
2024/04/06 08:35:01;;;;;;;2.83;2.00;;;;;;;;;;5096315;28;20424;-80
2024/04/06 08:37:27;;;;;;;3.53;1.90;;;;;;;;;;5096145;28;20464;-79
2024/04/06 08:39:53;;;;;;;2.63;1.80;;;;;;;;;;5095559;28;20890;-79
2024/04/06 08:42:20;;;;;;;2.83;1.73;;;;;;;;;;5095876;28;20411;-79
2024/04/06 08:44:47;;;;;;;3.10;1.80;;;;;;;;;;5096047;28;20378;-79
2024/04/06 08:47:13;;;;;;;2.55;1.60;;;;;;;;;;5098719;28;20725;-79
2024/04/06 08:49:40;;;;;;;2.80;1.80;;;;;;;;;;5099205;28;20394;-79
2024/04/06 08:52:07;;;;;;;2.90;1.50;;;;;;;;;;5099505;28;20397;-79
2024/04/06 08:54:33;;;;;;;2.08;1.30;;;;;;;;;;5099568;28;20728;-79
2024/04/06 08:57:04;;;;;;;3.17;1.17;;;;;;;;;;5098126;28;20378;-79
2024/04/06 08:59:30;;;;;;;2.45;1.00;;;;;;;;;;5099297;28;20373;-79
2024/04/06 09:01:56;;;;;;;2.38;0.98;;;;;;;;;;5099338;28;20382;-79
2024/04/06 09:04:22;;;;;;;2.20;1.08;;;;;;;;;;5099760;28;20386;-79
2024/04/06 09:06:48;;;;;;;2.08;1.10;;;;;;;;;;5099638;28;20401;-80
2024/04/06 09:09:15;;;;;;;1.20;0.70;;;;;;;;;;5098683;28;20406;-79
2024/04/06 09:11:42;;;;;;;2.33;1.30;;;;;;;;;;5099712;28;20382;-81
2024/04/06 09:14:08;;;;;;;2.60;1.00;;;;;;;;;;5099628;28;20384;-79
2024/04/06 09:16:34;;;;;;;1.95;0.95;;;;;;;;;;5099511;28;20393;-79
2024/04/06 09:19:00;;;;;;;1.10;0.97;;;;;;;;;;5100015;28;20396;-79
2024/04/06 09:21:28;;;;;;;1.67;1.00;;;;;;;;;;5099226;28;20913;-79
2024/04/06 09:23:54;;;;;;;1.77;0.90;;;;;;;;;;5099368;28;20369;-79
2024/04/06 09:26:23;;;;;;;2.38;1.00;;;;;;;;;;5099650;28;20381;-81
2024/04/06 09:28:52;;;;;;;2.20;1.00;;;;;;;;;;5098756;28;20410;-80
2024/04/06 09:31:20;;;;;;;1.93;0.90;;;;;;;;;;5099408;28;20393;-79
2024/04/06 09:33:51;;;;;;;1.30;1.00;;;;;;;;;;5099491;28;20406;-79
2024/04/06 09:36:18;;;;;;;2.23;1.27;;;;;;;;;;5099409;28;20472;-80
2024/04/06 09:38:45;;;;;;;3.22;1.10;;;;;;;;;;5099243;28;20378;-79
2024/04/06 09:41:12;;;;;;;3.65;1.25;;;;;;;;;;5098934;28;20401;-80
2024/04/06 09:43:38;;;;;;;1.60;0.90;;;;;;;;;;5098737;28;20378;-79
2024/04/06 09:46:04;;;;;;;1.58;0.90;;;;;;;;;;5098516;28;20389;-80
2024/04/06 09:48:32;;;;;;;1.10;0.90;;;;;;;;;;5097033;28;20856;-80
2024/04/06 09:50:59;;;;;;;1.70;1.00;;;;;;;;;;5084945;28;20426;-80
2024/04/06 09:53:26;;;;;;;1.27;0.98;;;;;;;;;;5099374;28;20381;-79
2024/04/06 09:55:54;;;;;;;2.88;0.80;;;;;;;;;;5098292;28;20436;-80
2024/04/06 09:58:27;;;;;;;2.63;1.20;;;;;;;;;;5097485;28;20382;-80
2024/04/06 10:00:53;;;;;;;1.20;1.05;;;;;;;;;;5099567;28;20382;-80
2024/04/06 10:03:21;;;;;;;2.13;1.00;;;;;;;;;;5098267;28;20731;-81
2024/04/06 10:05:49;;;;;;;2.83;1.30;;;;;;;;;;5098930;28;20460;-80
2024/04/06 10:08:17;;;;;;;2.22;1.15;;;;;;;;;;5098367;28;20402;-82
2024/04/06 10:10:46;;;;;;;2.60;0.87;;;;;;;;;;5098863;28;20378;-81
2024/04/06 10:13:21;;;;;;;2.90;0.90;;;;;;;;;;5098238;28;20392;-80
2024/04/06 10:15:47;;;;;;;1.60;0.80;;;;;;;;;;5098568;28;20378;-80
2024/04/06 10:18:13;;;;;;;1.80;0.80;;;;;;;;;;5097451;28;20379;-80
2024/04/06 10:20:44;;;;;;;3.10;1.08;;;;;;;;;;5099223;28;20469;-80
2024/04/06 10:23:13;;;;;;;1.77;0.80;;;;;;;;;;5097731;28;20411;-80
2024/04/06 10:25:39;;;;;;;1.38;1.00;;;;;;;;;;5098959;28;20382;-81
2024/04/06 10:28:06;;;;;;;2.33;0.93;;;;;;;;;;5097743;28;20432;-82
2024/04/06 10:30:33;;;;;;;1.10;0.70;;;;;;;;;;5098496;28;20386;-82
2024/04/06 10:32:59;;;;;;;2.17;0.90;;;;;;;;;;5098374;28;20853;-80
2024/04/06 10:35:26;;;;;;;1.60;0.63;;;;;;;;;;5098239;28;20377;-82
2024/04/06 10:37:52;;;;;;;2.45;0.90;;;;;;;;;;5098061;28;20394;-79
2024/04/06 10:40:18;;;;;;;2.17;0.75;;;;;;;;;;5097784;28;20715;-79
2024/04/06 10:42:44;;;;;;;2.90;0.80;;;;;;;;;;5098286;28;20378;-80
2024/04/06 10:45:14;;;;;;;1.30;0.70;;;;;;;;;;5098046;28;20791;-79
2024/04/06 10:47:40;;;;;;;1.90;0.82;;;;;;;;;;5097735;28;20812;-80
2024/04/06 10:50:09;;;;;;;1.20;0.77;;;;;;;;;;5097731;28;20929;-80
2024/04/06 10:52:36;;;;;;;1.75;0.70;;;;;;;;;;5098218;28;20485;-81
2024/04/06 10:55:09;;;;;;;1.60;0.77;;;;;;;;;;5097998;28;20386;-80
2024/04/06 10:57:36;;;;;;;1.60;0.70;;;;;;;;;;5096947;28;20386;-80
2024/04/06 11:00:04;;;;;;;1.17;0.80;;;;;;;;;;5096732;28;20514;-80
2024/04/06 11:02:31;;;;;;;2.42;0.70;;;;;;;;;;5097916;28;20373;-80
2024/04/06 11:04:57;;;;;;;2.35;0.70;;;;;;;;;;5097769;28;20405;-80
2024/04/06 11:07:23;;;;;;;3.08;0.98;;;;;;;;;;5097497;28;20716;-80
2024/04/06 11:09:50;;;;;;;3.28;0.98;;;;;;;;;;5096606;28;20408;-80
2024/04/06 11:12:16;;;;;;;1.30;0.90;;;;;;;;;;5097708;28;20895;-80
2024/04/06 11:14:42;;;;;;;1.70;0.60;;;;;;;;;;5097344;28;20469;-80
2024/04/06 11:17:08;;;;;;;1.50;0.57;;;;;;;;;;5097482;28;20401;-80
2024/04/06 11:19:34;;;;;;;1.60;0.80;;;;;;;;;;5097042;28;20420;-80
2024/04/06 11:22:06;;;;;;;1.40;0.77;;;;;;;;;;5097044;28;20371;-80
2024/04/06 11:24:32;;;;;;;2.67;0.70;;;;;;;;;;5097654;28;20800;-80
2024/04/06 11:27:05;;;;;;;1.58;0.77;;;;;;;;;;5097428;28;20386;-80
2024/04/06 11:29:31;;;;;;;1.52;0.80;;;;;;;;;;5096591;28;20397;-82
2024/04/06 11:31:57;;;;;;;1.70;1.00;;;;;;;;;;5097338;28;20762;-80
2024/04/06 11:34:23;;;;;;;1.33;0.75;;;;;;;;;;5097324;28;20373;-80
2024/04/06 11:36:49;;;;;;;3.28;1.00;;;;;;;;;;5096906;28;20398;-80
2024/04/06 11:39:15;;;;;;;1.20;0.90;;;;;;;;;;5097283;28;20398;-80
2024/04/06 11:41:41;;;;;;;2.03;0.82;;;;;;;;;;5097324;28;20374;-81
2024/04/06 11:44:07;;;;;;;1.75;0.90;;;;;;;;;;5097103;28;20369;-80
2024/04/06 11:46:34;;;;;;;2.38;0.90;;;;;;;;;;5096786;28;20382;-80
2024/04/06 11:49:00;;;;;;;2.97;0.80;;;;;;;;;;5096738;28;20433;-80
2024/04/06 11:51:27;;;;;;;1.80;0.90;;;;;;;;;;5096750;28;20406;-80
2024/04/06 11:53:54;;;;;;;2.05;0.90;;;;;;;;;;5096665;28;20401;-80
2024/04/06 11:56:20;;;;;;;1.60;0.70;;;;;;;;;;5097807;28;20396;-80
2024/04/06 11:58:46;;;;;;;1.20;0.80;;;;;;;;;;5096647;28;20452;-81
2024/04/06 12:01:12;;;;;;;1.63;1.03;;;;;;;;;;5096747;28;20471;-80
2024/04/06 12:03:38;;;;;;;1.40;0.90;;;;;;;;;;5096340;28;20370;-80
2024/04/06 12:06:04;;;;;;;1.77;1.00;;;;;;;;;;5096325;28;20366;-80
2024/04/06 12:08:30;;;;;;;2.75;1.17;;;;;;;;;;5096559;28;20492;-80
2024/04/06 12:10:56;;;;;;;1.60;0.80;;;;;;;;;;5096687;28;20555;-80
2024/04/06 12:13:22;;;;;;;1.65;0.85;;;;;;;;;;5096796;28;20376;-80
2024/04/06 12:15:48;;;;;;;2.40;1.10;;;;;;;;;;5097177;28;20459;-81
2024/04/06 12:18:14;;;;;;;1.42;0.93;;;;;;;;;;5096457;28;20456;-80
2024/04/06 12:20:40;;;;;;;1.02;0.80;;;;;;;;;;5098986;28;20393;-81
2024/04/06 12:23:06;;;;;;;2.08;1.10;;;;;;;;;;5101239;28;20442;-81
2024/04/06 12:25:33;;;;;;;2.00;0.90;;;;;;;;;;5100961;28;20526;-81
2024/04/06 12:27:59;;;;;;;1.30;0.80;;;;;;;;;;5100272;28;20413;-81
2024/04/06 12:30:25;;;;;;;2.85;1.00;;;;;;;;;;5100747;28;20407;-81
2024/04/06 12:32:51;;;;;;;2.88;1.15;;;;;;;;;;5100509;28;20402;-81
2024/04/06 12:35:17;;;;;;;1.20;1.10;;;;;;;;;;5100425;28;20473;-81
2024/04/06 12:37:43;;;;;;;2.20;1.10;;;;;;;;;;5100422;28;20913;-81
2024/04/06 12:40:09;;;;;;;2.78;0.82;;;;;;;;;;5101178;28;20378;-80
2024/04/06 12:42:35;;;;;;;2.03;0.80;;;;;;;;;;5100420;28;20417;-81
2024/04/06 12:45:02;;;;;;;1.98;0.90;;;;;;;;;;5100804;28;20378;-81
2024/04/06 12:47:28;;;;;;;1.27;0.80;;;;;;;;;;5100498;28;20391;-81
2024/04/06 12:49:54;;;;;;;1.58;0.82;;;;;;;;;;5100099;28;20755;-81
2024/04/06 12:52:20;;;;;;;4.72;3.25;;;;;;;;;;5100090;28;20382;-82
2024/04/06 12:54:48;;;;;;;1.98;0.80;;;;;;;;;;5100652;28;20383;-82
2024/04/06 12:59:58;;;;;;;1.20;0.80;;;;;;;;;;5100293;28;20393;-81
2024/04/06 13:02:24;;;;;;;3.20;1.10;;;;;;;;;;5101133;28;20763;-81
2024/04/06 13:04:50;;;;;;;2.10;0.80;;;;;;;;;;5093431;28;20404;-81
2024/04/06 13:07:16;;;;;;;1.17;0.90;;;;;;;;;;5100498;28;20381;-81
2024/04/06 13:09:45;;;;;;;1.77;1.00;;;;;;;;;;5100169;28;20449;-81
2024/04/06 13:12:12;;;;;;;2.30;1.02;;;;;;;;;;5100309;28;20830;-81
2024/04/06 13:14:39;;;;;;;2.60;1.00;;;;;;;;;;5100136;28;20751;-81
2024/04/06 13:17:06;;;;;;;1.30;1.00;;;;;;;;;;5099831;28;20378;-81
2024/04/06 13:19:32;;;;;;;1.85;1.00;;;;;;;;;;5100057;28;20406;-81
2024/04/06 13:21:59;;;;;;;1.43;0.80;;;;;;;;;;5099524;28;20381;-81
2024/04/06 13:24:25;;;;;;;1.43;0.90;;;;;;;;;;5099912;28;20376;-81
2024/04/06 13:26:52;;;;;;;2.20;0.90;;;;;;;;;;5099580;28;20386;-81
2024/04/06 13:29:18;;;;;;;3.38;1.13;;;;;;;;;;5099263;28;20410;-81
2024/04/06 13:31:44;;;;;;;1.40;0.80;;;;;;;;;;5098391;28;20370;-81
2024/04/06 13:34:11;;;;;;;1.60;1.00;;;;;;;;;;5100499;28;20370;-81
2024/04/06 13:36:38;;;;;;;1.75;0.88;;;;;;;;;;5099799;28;20382;-81
2024/04/06 13:39:06;;;;;;;1.70;0.70;;;;;;;;;;5099786;28;20433;-81
2024/04/06 13:41:32;;;;;;;3.78;0.90;;;;;;;;;;5099481;28;20378;-81
2024/04/06 13:43:58;;;;;;;2.73;1.10;;;;;;;;;;5099699;28;20421;-81
2024/04/06 13:46:24;;;;;;;2.60;0.80;;;;;;;;;;5099929;28;20382;-81
2024/04/06 13:48:50;;;;;;;1.58;0.90;;;;;;;;;;5098937;28;20398;-81
2024/04/06 13:51:16;;;;;;;3.17;0.93;;;;;;;;;;5099595;28;20400;-81
2024/04/06 13:53:42;;;;;;;1.83;1.00;;;;;;;;;;5099412;28;20848;-81
2024/04/06 13:56:08;;;;;;;3.35;1.10;;;;;;;;;;5099276;28;20382;-81
2024/04/06 13:58:34;;;;;;;2.35;1.00;;;;;;;;;;5098041;28;20374;-81
2024/04/06 14:01:01;;;;;;;2.00;0.80;;;;;;;;;;5098868;28;20390;-81
2024/04/06 14:03:26;;;;;;;0.93;0.75;;;;;;;;;;5098646;28;20370;-81
2024/04/06 14:05:52;;;;;;;4.22;1.00;;;;;;;;;;5097662;28;20871;-82
2024/04/06 14:08:19;;;;;;;3.80;0.70;;;;;;;;;;5098915;28;20402;-81
2024/04/06 14:10:45;;;;;;;1.60;0.80;;;;;;;;;;5098832;28;20464;-81
2024/04/06 14:13:10;;;;;;;1.88;0.70;;;;;;;;;;5098914;28;20420;-81
2024/04/06 14:15:36;;;;;;;1.00;0.63;;;;;;;;;;5099040;28;20382;-81
2024/04/06 14:18:04;;;;;;;1.25;0.73;;;;;;;;;;5098546;28;20393;-81
2024/04/06 14:20:29;;;;;;;1.10;0.80;;;;;;;;;;5099270;28;20713;-81
2024/04/06 14:22:56;;;;;;;1.52;0.88;;;;;;;;;;5099184;28;20481;-81
2024/04/06 14:25:22;;;;;;;1.13;0.80;;;;;;;;;;5098638;28;20393;-82
2024/04/06 14:27:48;;;;;;;1.43;0.90;;;;;;;;;;5098971;28;20377;-81
2024/04/06 14:30:28;;;;;;;1.53;1.00;;;;;;;;;;5098580;28;20413;-81
2024/04/06 14:32:54;;;;;;;2.70;0.85;;;;;;;;;;5098402;28;20398;-81
2024/04/06 14:35:20;;;;;;;1.35;0.60;;;;;;;;;;5098028;28;20370;-81
2024/04/06 14:37:46;;;;;;;1.23;0.80;;;;;;;;;;5098073;28;20366;-81
2024/04/06 14:40:12;;;;;;;2.65;1.00;;;;;;;;;;5098709;28;20449;-81
2024/04/06 14:42:38;;;;;;;2.80;0.98;;;;;;;;;;5098587;28;20408;-81